Time;durP1;ratioP1;P1;durP2;ratioP2;P2;SDS_P1;SDS_P2;PMS_P1;PMS_P2;Temp;Humidity;BMP_temperature;BMP_pressure;BME280_temperature;BME280_humidity;BME280_pressure;Samples;Min_cycle;Max_cycle;Signal;HPM_P1;HPM_P2
2022/09/24 00:04:38;;;;;;;0.20;0.00;;;17.40;99.90;;;;;;26016601;22;20195;-72
2022/09/24 00:14:42;;;;;;;0.20;0.00;;;17.60;99.90;;;;;;26042381;22;20164;-71
2022/09/24 00:35:09;;;;;;;0.20;0.00;;;17.60;99.90;;;;;;26014565;22;20183;-71
2022/09/24 00:45:14;;;;;;;0.20;0.00;;;17.90;99.90;;;;;;26041259;22;20196;-72
2022/09/24 00:55:19;;;;;;;0.20;0.00;;;18.30;99.90;;;;;;26014434;22;20261;-72
2022/09/24 01:05:24;;;;;;;0.20;0.00;;;18.20;99.90;;;;;;26041442;22;20242;-72
2022/09/24 01:15:33;;;;;;;0.20;0.00;;;18.40;99.90;;;;;;26039986;22;20201;-71
2022/09/24 01:25:57;;;;;;;0.20;0.03;;;18.10;99.90;;;;;;26042627;22;21080;-71
2022/09/24 01:36:07;;;;;;;0.20;0.07;;;18.40;99.90;;;;;;26016712;22;20252;-71
2022/09/24 01:46:12;;;;;;;0.20;0.00;;;18.00;99.90;;;;;;26014340;22;20213;-72
2022/09/24 01:56:22;;;;;;;0.20;0.00;;;17.90;99.90;;;;;;26038967;22;20287;-73
2022/09/24 02:06:35;;;;;;;0.20;0.00;;;18.30;99.90;;;;;;26013996;22;20195;-71
2022/09/24 02:16:47;;;;;;;0.20;0.00;;;18.00;99.90;;;;;;26049302;22;20167;-72
2022/09/24 02:26:51;;;;;;;0.20;0.00;;;17.80;99.90;;;;;;26047448;22;20200;-72
2022/09/24 02:36:59;;;;;;;0.20;0.00;;;18.00;99.90;;;;;;26020612;22;20188;-72
2022/09/24 02:47:03;;;;;;;0.20;0.00;;;17.80;99.90;;;;;;26047319;22;20262;-71
2022/09/24 02:57:09;;;;;;;0.20;0.00;;;17.60;99.90;;;;;;26045353;22;20247;-72
2022/09/24 03:07:13;;;;;;;0.20;0.00;;;17.50;99.90;;;;;;26020076;22;20212;-72
2022/09/24 03:17:18;;;;;;;0.20;0.00;;;17.60;99.90;;;;;;25992195;22;20844;-72
2022/09/24 03:27:22;;;;;;;0.20;0.10;;;17.80;99.90;;;;;;26044738;22;20244;-72
2022/09/24 03:37:27;;;;;;;0.20;0.00;;;17.80;99.90;;;;;;26042046;22;20239;-73
2022/09/24 03:47:31;;;;;;;0.20;0.00;;;17.90;99.90;;;;;;26045582;22;20231;-73
2022/09/24 03:57:36;;;;;;;0.20;0.10;;;18.00;99.90;;;;;;26042963;22;20192;-73
2022/09/24 04:07:40;;;;;;;0.20;0.00;;;18.30;99.90;;;;;;26043261;22;20195;-72
2022/09/24 04:17:51;;;;;;;0.20;0.00;;;18.30;99.90;;;;;;26043769;22;20172;-72
2022/09/24 04:27:56;;;;;;;0.20;0.00;;;18.50;99.90;;;;;;26017719;22;20242;-74
2022/09/24 04:38:02;;;;;;;0.20;0.00;;;18.60;99.90;;;;;;26015400;22;20164;-74
2022/09/24 04:48:06;;;;;;;0.20;0.03;;;18.70;99.90;;;;;;26014834;22;20218;-73
2022/09/24 04:58:11;;;;;;;0.20;0.00;;;18.70;99.90;;;;;;25914172;23;20266;-73
2022/09/24 05:08:16;;;;;;;0.20;0.00;;;18.70;99.90;;;;;;25914251;23;20208;-73
2022/09/24 05:18:21;;;;;;;0.20;0.00;;;18.90;99.90;;;;;;25912988;22;20177;-73
2022/09/24 05:28:25;;;;;;;0.20;0.00;;;19.00;99.90;;;;;;25910608;23;20195;-73
2022/09/24 05:38:31;;;;;;;0.20;0.00;;;19.10;99.90;;;;;;25913510;23;20172;-74
2022/09/24 05:48:35;;;;;;;0.20;0.10;;;19.10;99.90;;;;;;25917839;23;20176;-73
2022/09/24 05:58:40;;;;;;;0.20;0.10;;;19.10;99.90;;;;;;25921218;23;20300;-71
2022/09/24 06:08:44;;;;;;;0.20;0.00;;;19.10;99.90;;;;;;25920381;23;20270;-72
2022/09/24 06:18:49;;;;;;;0.20;0.00;;;19.20;99.90;;;;;;25919911;22;20221;-74
2022/09/24 06:28:53;;;;;;;0.20;0.00;;;19.20;99.90;;;;;;25919669;23;20236;-73
2022/09/24 06:38:58;;;;;;;0.20;0.10;;;19.40;99.90;;;;;;25918956;23;20185;-73
2022/09/24 06:49:02;;;;;;;0.20;0.10;;;19.40;99.90;;;;;;25919426;23;20177;-73
2022/09/24 06:59:07;;;;;;;0.20;0.00;;;19.60;99.90;;;;;;26031286;22;20192;-71
2022/09/24 07:09:11;;;;;;;0.20;0.00;;;19.70;99.90;;;;;;26016797;22;20210;-72
2022/09/24 07:19:16;;;;;;;0.20;0.10;;;19.80;99.90;;;;;;26041812;22;20219;-73
2022/09/24 07:29:20;;;;;;;0.20;0.10;;;19.80;99.90;;;;;;26042324;22;20806;-73
2022/09/24 07:39:26;;;;;;;0.20;0.10;;;20.00;99.90;;;;;;26041173;22;20176;-71
2022/09/24 07:49:31;;;;;;;0.20;0.10;;;20.20;99.90;;;;;;26014167;22;20200;-72
2022/09/24 07:59:36;;;;;;;0.20;0.00;;;20.40;99.90;;;;;;26040708;22;20195;-73
2022/09/24 08:09:40;;;;;;;0.20;0.00;;;20.60;99.90;;;;;;26014804;22;20211;-72
2022/09/24 08:19:46;;;;;;;0.20;0.00;;;20.70;99.90;;;;;;26041185;22;20203;-71
2022/09/24 08:29:50;;;;;;;0.20;0.10;;;21.00;99.90;;;;;;26013643;22;20247;-71
2022/09/24 08:39:55;;;;;;;0.20;0.00;;;21.00;99.90;;;;;;26039736;22;20171;-72
2022/09/24 08:50:08;;;;;;;0.20;0.00;;;21.00;99.90;;;;;;26035559;22;20263;-69
2022/09/24 09:00:15;;;;;;;0.20;0.10;;;21.80;99.90;;;;;;26038034;22;20282;-72
2022/09/24 09:10:27;;;;;;;0.20;0.00;;;22.20;99.90;;;;;;26010747;22;20283;-72
2022/09/24 09:20:36;;;;;;;0.20;0.10;;;22.60;99.90;;;;;;26036740;22;20183;-71
2022/09/24 09:30:46;;;;;;;0.20;0.00;;;23.10;99.90;;;;;;26035830;22;20187;-72
2022/09/24 09:40:59;;;;;;;0.20;0.00;;;23.20;99.90;;;;;;26008949;22;20376;-71
2022/09/24 09:51:05;;;;;;;0.20;0.00;;;22.40;99.90;;;;;;26035002;22;20210;-70
2022/09/24 10:01:13;;;;;;;0.20;0.00;;;22.50;99.90;;;;;;26006435;22;20156;-72
2022/09/24 10:11:18;;;;;;;0.20;0.10;;;22.80;99.90;;;;;;26031183;22;20215;-72
2022/09/24 10:21:33;;;;;;;0.20;0.00;;;22.70;99.90;;;;;;26029690;22;20223;-74
2022/09/24 10:31:40;;;;;;;0.20;0.00;;;22.60;99.90;;;;;;26010741;22;20233;-72
2022/09/24 10:41:49;;;;;;;0.20;0.00;;;22.30;99.90;;;;;;26015543;22;20164;-73
2022/09/24 10:52:02;;;;;;;0.20;0.00;;;22.50;99.90;;;;;;26012404;22;20200;-72
2022/09/24 11:02:46;;;;;;;0.20;0.00;;;22.60;99.90;;;;;;26034990;22;20902;-73
2022/09/24 11:13:06;;;;;;;0.20;0.00;;;22.90;99.90;;;;;;25996614;22;20200;-71
2022/09/24 11:23:29;;;;;;;0.20;0.00;;;24.50;99.90;;;;;;26037049;22;20248;-70
2022/09/24 11:33:51;;;;;;;0.20;0.00;;;24.50;99.90;;;;;;26038995;22;20165;-71
2022/09/24 11:44:17;;;;;;;0.20;0.00;;;24.70;99.90;;;;;;26039281;22;20278;-74
2022/09/24 11:54:31;;;;;;;0.20;0.00;;;25.30;99.90;;;;;;26012490;22;20203;-70
2022/09/24 12:04:47;;;;;;;0.20;0.10;;;24.90;99.90;;;;;;26033605;22;20251;-72
2022/09/24 12:14:57;;;;;;;0.20;0.10;;;24.90;99.90;;;;;;26012267;22;20183;-72
2022/09/24 12:25:01;;;;;;;0.20;0.00;;;24.40;99.90;;;;;;26036701;22;20320;-72
2022/09/24 12:35:17;;;;;;;0.20;0.00;;;23.60;99.90;;;;;;26038313;22;20220;-72
2022/09/24 12:45:23;;;;;;;0.20;0.00;;;23.70;99.90;;;;;;26008373;22;20176;-71
2022/09/24 12:55:32;;;;;;;0.20;0.00;;;23.80;99.90;;;;;;26036934;22;20216;-72
2022/09/24 13:05:48;;;;;;;0.20;0.00;;;23.30;99.90;;;;;;26033628;22;20219;-68
2022/09/24 13:16:01;;;;;;;0.20;0.00;;;24.20;99.90;;;;;;26010059;22;20155;-72
2022/09/24 13:26:07;;;;;;;0.20;0.00;;;24.30;99.90;;;;;;26064490;22;20180;-73
2022/09/24 13:36:15;;;;;;;0.20;0.00;;;24.50;99.90;;;;;;26040337;22;20519;-71
2022/09/24 13:46:21;;;;;;;0.20;0.10;;;24.50;99.90;;;;;;26064178;22;20192;-71
2022/09/24 13:56:26;;;;;;;0.20;0.10;;;24.40;99.90;;;;;;26037326;22;20203;-69
2022/09/24 14:06:34;;;;;;;0.20;0.00;;;25.30;99.90;;;;;;26067778;22;20255;-71
2022/09/24 14:16:39;;;;;;;0.20;0.00;;;26.80;99.90;;;;;;26073714;22;20232;-72
2022/09/24 14:26:47;;;;;;;0.20;0.00;;;25.10;99.90;;;;;;26074474;22;20259;-71
2022/09/24 14:36:52;;;;;;;0.20;0.00;;;27.80;99.90;;;;;;26077468;22;20149;-68
2022/09/24 14:46:58;;;;;;;0.20;0.00;;;25.70;99.90;;;;;;26078167;22;20192;-70
2022/09/24 14:57:11;;;;;;;0.20;0.00;;;26.80;99.90;;;;;;26047262;22;20196;-70
2022/09/24 15:07:17;;;;;;;0.20;0.00;;;24.70;99.90;;;;;;26075854;22;20213;-71
2022/09/24 15:17:24;;;;;;;0.20;0.00;;;24.60;99.90;;;;;;26074588;22;20164;-70
2022/09/24 15:27:31;;;;;;;0.20;0.00;;;23.90;99.90;;;;;;26074515;22;20203;-69
2022/09/24 15:37:39;;;;;;;0.20;0.00;;;23.70;99.90;;;;;;26073056;22;20173;-71
2022/09/24 15:47:43;;;;;;;0.20;0.00;;;23.30;99.90;;;;;;26070437;22;20229;-69
2022/09/24 15:57:48;;;;;;;0.20;0.00;;;23.40;99.90;;;;;;26069486;22;20234;-72
2022/09/24 16:07:51;;;;;;;0.20;0.00;;;23.30;99.90;;;;;;26067697;22;20207;-70
2022/09/24 16:17:56;;;;;;;0.20;0.00;;;23.00;99.90;;;;;;26069856;22;20187;-70
2022/09/24 16:28:00;;;;;;;0.20;0.00;;;22.90;99.90;;;;;;26064721;22;20206;-69
2022/09/24 16:38:05;;;;;;;0.20;0.00;;;22.90;99.90;;;;;;26067955;22;20242;-70
2022/09/24 16:48:12;;;;;;;0.20;0.00;;;22.80;99.90;;;;;;26066614;22;20180;-70
2022/09/24 16:58:17;;;;;;;0.20;0.00;;;22.50;99.90;;;;;;26055641;22;20192;-70
2022/09/24 17:08:21;;;;;;;0.20;0.00;;;22.30;99.90;;;;;;26060868;22;20258;-71
2022/09/24 17:18:26;;;;;;;0.20;0.00;;;22.30;99.90;;;;;;26041845;22;20171;-69
2022/09/24 17:28:32;;;;;;;0.20;0.00;;;22.30;99.90;;;;;;26069103;22;20180;-70
2022/09/24 17:38:38;;;;;;;0.20;0.00;;;22.00;99.90;;;;;;26041906;22;20627;-68
2022/09/24 17:48:43;;;;;;;0.20;0.00;;;21.80;99.90;;;;;;26078670;22;20191;-70
2022/09/24 17:58:48;;;;;;;0.20;0.00;;;21.50;99.90;;;;;;26067318;22;20203;-70
2022/09/24 18:08:52;;;;;;;0.20;0.00;;;21.40;99.90;;;;;;26066674;22;20254;-69
2022/09/24 18:18:59;;;;;;;0.20;0.00;;;21.40;99.90;;;;;;26073202;22;20160;-71
2022/09/24 18:29:08;;;;;;;0.20;0.00;;;21.40;99.90;;;;;;26076676;22;20228;-71
2022/09/24 18:39:15;;;;;;;0.20;0.00;;;21.30;99.90;;;;;;26077548;22;20155;-70
2022/09/24 18:49:27;;;;;;;0.20;0.00;;;21.30;99.90;;;;;;26077113;22;20180;-70
2022/09/24 18:59:37;;;;;;;0.20;0.00;;;21.30;99.90;;;;;;26075677;22;20208;-71
2022/09/24 19:09:40;;;;;;;0.20;0.10;;;21.20;99.90;;;;;;26074395;22;20200;-71
2022/09/24 19:19:46;;;;;;;0.20;0.00;;;21.20;99.90;;;;;;26071557;22;20182;-71
2022/09/24 19:29:54;;;;;;;0.20;0.00;;;20.90;99.90;;;;;;26070246;22;20176;-71
2022/09/24 19:39:59;;;;;;;0.20;0.00;;;20.80;99.90;;;;;;26045555;22;20172;-72
2022/09/24 19:50:04;;;;;;;0.20;0.00;;;20.80;99.90;;;;;;26071419;22;20239;-70
2022/09/24 20:00:10;;;;;;;0.20;0.00;;;20.70;99.90;;;;;;26070292;22;20195;-71
2022/09/24 20:10:14;;;;;;;0.20;0.00;;;20.60;99.90;;;;;;26070228;22;20202;-72
2022/09/24 20:20:19;;;;;;;0.20;0.00;;;20.60;99.90;;;;;;26070673;22;20176;-71
2022/09/24 20:30:22;;;;;;;0.20;0.00;;;20.60;99.90;;;;;;26070708;22;20263;-71
2022/09/24 20:40:28;;;;;;;0.20;0.10;;;20.40;99.90;;;;;;26070845;22;20172;-71
2022/09/24 20:50:34;;;;;;;0.20;0.00;;;20.30;99.90;;;;;;26072846;22;20215;-73
2022/09/24 21:00:47;;;;;;;0.20;0.00;;;20.20;99.90;;;;;;26074658;22;20168;-70
2022/09/24 21:11:00;;;;;;;0.20;0.10;;;19.80;99.90;;;;;;26047256;22;21002;-72
2022/09/24 21:21:07;;;;;;;0.20;0.00;;;19.80;99.90;;;;;;26072685;22;20152;-72
2022/09/24 21:31:11;;;;;;;0.20;0.00;;;19.90;99.90;;;;;;26072980;22;20180;-71
2022/09/24 21:41:16;;;;;;;0.20;0.10;;;20.00;99.90;;;;;;26072420;22;20176;-71
2022/09/24 21:51:21;;;;;;;0.20;0.00;;;19.90;99.90;;;;;;26071951;22;20279;-70
2022/09/24 22:01:29;;;;;;;0.20;0.00;;;20.10;99.90;;;;;;26046665;22;20161;-71
2022/09/24 22:11:33;;;;;;;0.20;0.10;;;19.70;99.90;;;;;;26044108;22;20188;-69
2022/09/24 22:21:39;;;;;;;0.20;0.00;;;19.40;99.90;;;;;;26046031;22;20186;-70
2022/09/24 22:31:42;;;;;;;0.20;0.10;;;19.60;99.90;;;;;;26079332;22;20183;-70
2022/09/24 22:41:48;;;;;;;0.20;0.10;;;19.70;99.90;;;;;;26054120;22;20175;-69
2022/09/24 22:51:51;;;;;;;0.20;0.10;;;19.60;99.90;;;;;;26080524;22;20200;-69
2022/09/24 23:01:57;;;;;;;0.20;0.00;;;19.20;99.90;;;;;;26053465;22;20184;-66
2022/09/24 23:12:00;;;;;;;0.20;0.00;;;17.10;99.90;;;;;;26078853;22;20237;-69
2022/09/24 23:22:05;;;;;;;0.20;0.10;;;16.70;99.90;;;;;;26077372;22;20164;-70
2022/09/24 23:32:09;;;;;;;0.20;0.00;;;16.80;99.90;;;;;;26078760;22;20222;-69
2022/09/24 23:42:15;;;;;;;0.20;0.10;;;16.90;99.90;;;;;;26079355;22;20156;-70
2022/09/24 23:52:18;;;;;;;0.20;0.00;;;16.80;99.90;;;;;;26078836;22;20245;-69
